Time;durP1;ratioP1;P1;durP2;ratioP2;P2;SDS_P1;SDS_P2;PMS_P1;PMS_P2;Temp;Humidity;BMP_temperature;BMP_pressure;BME280_temperature;BME280_humidity;BME280_pressure;Samples;Min_cycle;Max_cycle;Signal;HPM_P1;HPM_P2
2024/01/28 00:00:22;;;;;;;1.93;0.70;;;;;;;6.61;94.92;102794.59;2094690;28;20587;-63
2024/01/28 00:01:22;;;;;;;0.70;0.60;;;;;;;6.55;95.35;102802.31;2089183;28;20611;-63
2024/01/28 00:02:23;;;;;;;0.50;0.40;;;;;;;6.54;95.85;102802.66;2095283;28;20198;-62
2024/01/28 00:03:23;;;;;;;1.10;0.47;;;;;;;6.48;95.03;102807.63;2090938;28;20210;-62
2024/01/28 00:04:24;;;;;;;2.20;0.60;;;;;;;6.25;95.92;102775.50;2090955;28;20603;-63
2024/01/28 00:05:24;;;;;;;2.67;0.70;;;;;;;6.42;95.97;102800.75;2089045;28;20639;-63
2024/01/28 00:06:25;;;;;;;2.10;0.90;;;;;;;6.45;95.33;102802.81;2088910;28;20649;-62
2024/01/28 00:07:25;;;;;;;2.27;0.60;;;;;;;6.41;95.89;102801.13;2088454;28;20219;-63
2024/01/28 00:08:26;;;;;;;3.23;0.77;;;;;;;6.39;96.11;102803.41;2087475;28;20260;-62
2024/01/28 00:09:26;;;;;;;2.40;0.77;;;;;;;6.33;95.88;102805.63;2092039;28;20201;-63
2024/01/28 00:10:27;;;;;;;1.03;0.70;;;;;;;6.31;96.63;102801.63;2089052;28;20209;-62
2024/01/28 00:11:27;;;;;;;2.10;0.80;;;;;;;6.30;96.84;102808.28;2090666;28;20195;-63
2024/01/28 00:12:28;;;;;;;0.73;0.70;;;;;;;6.29;96.60;102801.97;2091794;28;20263;-65
2024/01/28 00:13:30;;;;;;;3.73;1.47;;;;;;;6.22;96.93;102811.97;2089638;28;20269;-63
2024/01/28 00:14:30;;;;;;;4.30;1.33;;;;;;;6.19;97.50;102805.22;2095392;28;20203;-63
2024/01/28 00:15:31;;;;;;;2.40;1.03;;;;;;;6.18;97.14;102811.88;2090282;28;20271;-63
2024/01/28 00:16:31;;;;;;;3.33;1.10;;;;;;;6.12;97.47;102807.78;2088558;28;20185;-62
2024/01/28 00:17:32;;;;;;;2.90;0.83;;;;;;;6.11;97.91;102808.13;2090818;28;20229;-62
2024/01/28 00:18:32;;;;;;;1.53;0.90;;;;;;;6.08;98.47;102806.88;2092380;28;20276;-63
2024/01/28 00:19:33;;;;;;;2.80;0.97;;;;;;;6.01;98.37;102797.59;2092254;28;20184;-63
2024/01/28 00:20:34;;;;;;;1.07;0.60;;;;;;;5.97;98.22;102793.94;2091695;28;20563;-63
2024/01/28 00:21:35;;;;;;;2.70;0.87;;;;;;;6.04;97.95;102814.22;2089085;28;20569;-62
2024/01/28 00:22:36;;;;;;;3.40;0.80;;;;;;;6.04;98.70;102808.72;2090650;28;20191;-63
2024/01/28 00:23:36;;;;;;;3.53;1.23;;;;;;;6.06;97.81;102820.16;2093403;28;20420;-63
2024/01/28 00:24:37;;;;;;;1.47;0.70;;;;;;;5.97;98.44;102814.03;2088716;28;20184;-63
2024/01/28 00:25:37;;;;;;;1.90;1.00;;;;;;;5.66;98.82;102764.31;2089138;28;20271;-63
2024/01/28 00:26:41;;;;;;;2.80;0.90;;;;;;;5.28;98.65;102716.38;2085355;28;20248;-63
2024/01/28 00:27:41;;;;;;;2.05;0.80;;;;;;;6.03;98.32;102817.31;2090443;28;20204;-63
2024/01/28 00:28:42;;;;;;;4.73;0.63;;;;;;;5.97;98.64;102819.53;2093990;28;20203;-63
2024/01/28 00:29:42;;;;;;;2.30;0.60;;;;;;;5.91;99.04;102823.69;2091212;28;20210;-63
2024/01/28 00:30:43;;;;;;;2.10;0.80;;;;;;;5.91;98.60;102820.94;2089274;28;20194;-63
2024/01/28 00:31:43;;;;;;;0.80;0.60;;;;;;;5.87;99.55;102816.44;2094242;28;20244;-63
2024/01/28 00:32:45;;;;;;;1.27;0.77;;;;;;;5.85;100.00;102813.25;2093760;28;20217;-62
2024/01/28 00:33:45;;;;;;;1.83;0.80;;;;;;;5.75;100.00;102802.69;2089063;28;20201;-62
2024/01/28 00:34:46;;;;;;;2.87;1.10;;;;;;;5.85;100.00;102813.25;2093382;28;21027;-63
2024/01/28 00:35:47;;;;;;;2.30;1.30;;;;;;;5.85;100.00;102816.00;2088138;28;20635;-62
2024/01/28 00:36:48;;;;;;;2.17;1.05;;;;;;;4.96;100.00;102684.34;2088762;28;20224;-63
2024/01/28 00:37:48;;;;;;;1.73;0.95;;;;;;;5.81;100.00;102809.59;2088473;28;20190;-62
2024/01/28 00:38:49;;;;;;;3.30;1.10;;;;;;;5.81;100.00;102813.16;2087997;28;20187;-63
2024/01/28 00:39:49;;;;;;;7.57;1.30;;;;;;;5.84;100.00;102811.66;2090425;28;20190;-63
2024/01/28 00:40:50;;;;;;;0.97;0.63;;;;;;;5.78;100.00;102815.75;2087888;28;20245;-62
2024/01/28 00:41:50;;;;;;;1.73;1.23;;;;;;;5.74;100.00;102812.88;2087545;28;20734;-63
2024/01/28 00:42:51;;;;;;;0.93;0.63;;;;;;;5.70;100.00;102819.44;2093624;28;20243;-62
2024/01/28 00:43:52;;;;;;;1.30;0.77;;;;;;;5.60;100.00;102806.16;2088210;28;20236;-63
2024/01/28 00:44:52;;;;;;;2.13;0.90;;;;;;;5.63;100.00;102810.94;2092470;28;20179;-64
2024/01/28 00:45:53;;;;;;;1.33;0.80;;;;;;;5.64;100.00;102810.59;2088160;28;20290;-62
2024/01/28 00:46:55;;;;;;;1.33;0.90;;;;;;;5.58;100.00;102808.44;2089703;28;20196;-63
2024/01/28 00:47:55;;;;;;;1.40;0.70;;;;;;;5.53;100.00;102811.44;2093644;28;20211;-62
2024/01/28 00:48:56;;;;;;;1.47;0.70;;;;;;;5.38;100.00;102799.19;2088511;28;20272;-62
2024/01/28 00:49:56;;;;;;;1.33;0.60;;;;;;;5.16;100.00;102774.91;2088283;28;20254;-62
2024/01/28 00:50:57;;;;;;;2.57;0.60;;;;;;;5.32;100.00;102808.81;2089355;28;20180;-63
2024/01/28 00:51:58;;;;;;;1.30;0.90;;;;;;;5.35;100.00;102804.56;2087560;28;20207;-63
2024/01/28 00:52:58;;;;;;;1.13;0.50;;;;;;;5.37;100.00;102807.78;2088016;28;20195;-63
2024/01/28 00:53:59;;;;;;;1.10;0.67;;;;;;;5.35;100.00;102805.38;2088484;28;20567;-63
2024/01/28 00:55:00;;;;;;;2.38;0.80;;;;;;;5.33;100.00;102809.63;2088386;28;20216;-63
2024/01/28 00:56:00;;;;;;;1.63;0.80;;;;;;;5.29;100.00;102805.97;2088522;28;20199;-62
2024/01/28 00:57:01;;;;;;;1.73;0.70;;;;;;;5.28;100.00;102801.59;2089993;28;20191;-63
2024/01/28 00:58:02;;;;;;;0.87;0.60;;;;;;;5.22;100.00;102787.28;2088468;28;20219;-63
2024/01/28 00:59:02;;;;;;;1.58;0.63;;;;;;;5.26;100.00;102807.44;2088254;28;20188;-62
2024/01/28 01:00:04;;;;;;;3.80;1.30;;;;;;;5.21;100.00;102795.88;2088617;28;20192;-63
2024/01/28 01:01:05;;;;;;;5.22;0.90;;;;;;;5.18;100.00;102802.06;2088426;28;20192;-63
2024/01/28 01:02:05;;;;;;;3.27;0.80;;;;;;;5.17;100.00;102794.94;2092287;28;20256;-63
2024/01/28 01:03:06;;;;;;;2.27;1.00;;;;;;;5.11;100.00;102788.88;2089123;28;20222;-62
2024/01/28 01:04:06;;;;;;;1.53;0.77;;;;;;;3.92;100.00;102603.63;2088306;28;20193;-63
2024/01/28 01:05:07;;;;;;;2.33;0.90;;;;;;;5.06;100.00;102785.56;2088478;28;20742;-62
2024/01/28 01:06:07;;;;;;;2.77;0.83;;;;;;;5.15;100.00;102797.25;2088002;28;20194;-63
2024/01/28 01:07:08;;;;;;;3.13;0.83;;;;;;;5.15;100.00;102789.81;2088005;28;20184;-63
2024/01/28 01:08:09;;;;;;;1.03;0.63;;;;;;;5.14;100.00;102804.69;2094780;28;20195;-63
2024/01/28 01:09:09;;;;;;;1.17;0.83;;;;;;;5.12;100.00;102800.69;2090887;28;20287;-63
2024/01/28 01:10:10;;;;;;;3.90;0.70;;;;;;;5.11;100.00;102808.13;2089738;28;20181;-63
2024/01/28 01:11:10;;;;;;;1.23;0.70;;;;;;;5.11;100.00;102801.81;2088521;28;20207;-62
2024/01/28 01:12:12;;;;;;;1.37;0.60;;;;;;;5.09;100.00;102804.94;2087699;28;20195;-63
2024/01/28 01:13:12;;;;;;;1.30;0.80;;;;;;;5.08;100.00;102794.28;2088716;28;20196;-63
2024/01/28 01:14:13;;;;;;;5.23;0.93;;;;;;;5.02;100.00;102804.69;2087902;28;20263;-62
2024/01/28 01:15:13;;;;;;;1.87;0.87;;;;;;;5.02;100.00;102804.69;2093773;28;20183;-62
2024/01/28 01:16:14;;;;;;;1.40;0.80;;;;;;;5.00;100.00;102800.66;2091910;28;20234;-63
2024/01/28 01:17:14;;;;;;;1.80;0.80;;;;;;;5.02;100.00;102801.94;2090074;28;20190;-63
2024/01/28 01:18:15;;;;;;;2.07;0.90;;;;;;;4.98;100.00;102802.97;2088166;28;20189;-62
2024/01/28 01:19:16;;;;;;;3.07;1.00;;;;;;;5.03;100.00;102802.75;2088163;28;20198;-63
2024/01/28 01:20:17;;;;;;;1.27;0.70;;;;;;;5.00;100.00;102806.97;2088114;28;20659;-63
2024/01/28 01:21:18;;;;;;;3.45;1.33;;;;;;;4.94;100.00;102796.53;2088467;28;20275;-62
2024/01/28 01:22:18;;;;;;;2.47;0.80;;;;;;;4.94;100.00;102800.09;2087063;28;20708;-63
2024/01/28 01:23:19;;;;;;;2.97;1.00;;;;;;;4.93;100.00;102809.47;2093121;28;20186;-63
2024/01/28 01:24:19;;;;;;;1.47;0.67;;;;;;;4.88;100.00;102806.16;2088461;28;20181;-62
2024/01/28 01:25:20;;;;;;;1.57;0.70;;;;;;;4.88;100.00;102809.69;2089081;28;20185;-62
2024/01/28 01:26:21;;;;;;;1.13;0.80;;;;;;;4.89;100.00;102803.06;2094463;28;20195;-62
2024/01/28 01:27:21;;;;;;;1.53;0.80;;;;;;;4.83;100.00;102809.13;2094495;28;20787;-63
2024/01/28 01:28:22;;;;;;;2.47;0.90;;;;;;;4.83;100.00;102812.66;2093987;28;20221;-63
2024/01/28 01:29:23;;;;;;;1.23;0.87;;;;;;;4.72;100.00;102814.25;2092722;28;20198;-62
2024/01/28 01:30:24;;;;;;;1.80;0.85;;;;;;;4.70;100.00;102802.81;2088899;28;26957;-62
2024/01/28 01:31:24;;;;;;;0.87;0.73;;;;;;;4.78;100.00;102809.34;2087746;28;20218;-63
2024/01/28 01:32:25;;;;;;;1.00;0.70;;;;;;;4.75;100.00;102804.53;2088125;28;20654;-62
2024/01/28 01:33:25;;;;;;;3.27;1.07;;;;;;;4.75;100.00;102799.03;2094507;28;20217;-62
2024/01/28 01:34:27;;;;;;;1.90;0.90;;;;;;;4.77;100.00;102803.03;2092422;28;20206;-62
2024/01/28 01:35:27;;;;;;;5.32;1.20;;;;;;;4.81;100.00;102803.16;2089300;28;20218;-63
2024/01/28 01:36:28;;;;;;;2.13;1.10;;;;;;;4.79;100.00;102808.19;2087815;28;20184;-63
2024/01/28 01:37:28;;;;;;;1.00;0.60;;;;;;;4.04;100.00;102699.69;2087839;28;20665;-62
2024/01/28 01:38:29;;;;;;;1.20;0.77;;;;;;;4.85;100.00;102810.38;2087625;28;20228;-63
2024/01/28 01:39:30;;;;;;;3.53;0.80;;;;;;;4.38;100.00;102739.69;2092145;28;20607;-63
2024/01/28 01:40:30;;;;;;;1.85;0.88;;;;;;;4.79;100.00;102808.19;2088182;28;20179;-63
2024/01/28 01:41:31;;;;;;;1.37;0.70;;;;;;;4.79;100.00;102808.19;2094694;28;20273;-62
2024/01/28 01:42:32;;;;;;;4.17;0.80;;;;;;;4.81;100.00;102811.41;2088831;28;20197;-63
2024/01/28 01:43:32;;;;;;;1.67;1.00;;;;;;;4.80;100.00;102807.06;2088169;28;20253;-63
2024/01/28 01:44:34;;;;;;;4.27;1.13;;;;;;;4.81;100.00;102814.97;2090738;28;20196;-63
2024/01/28 01:45:37;;;;;;;3.30;0.82;;;;;;;4.81;100.00;102803.16;2091561;28;20603;-63
2024/01/28 01:46:39;;;;;;;2.58;0.70;;;;;;;3.63;100.00;102633.13;2088720;28;20658;-63
2024/01/28 01:47:40;;;;;;;3.58;0.90;;;;;;;4.02;100.00;102690.19;2091566;28;20559;-63
2024/01/28 01:48:41;;;;;;;1.88;1.00;;;;;;;4.79;100.00;102808.19;2091547;28;20187;-62
2024/01/28 01:49:43;;;;;;;2.75;0.70;;;;;;;4.83;100.00;102807.16;2087860;28;20307;-63
2024/01/28 01:50:43;;;;;;;3.72;0.90;;;;;;;4.51;100.00;102746.81;2097016;28;20678;-63
2024/01/28 01:51:44;;;;;;;1.23;0.83;;;;;;;4.83;100.00;102792.66;2090865;28;20196;-63
2024/01/28 01:52:45;;;;;;;1.80;0.70;;;;;;;4.84;100.00;102808.78;2089596;28;20192;-62
2024/01/28 01:53:45;;;;;;;1.90;0.87;;;;;;;4.78;100.00;102815.63;2089843;28;20266;-62
2024/01/28 01:54:47;;;;;;;1.27;0.60;;;;;;;4.80;100.00;102815.28;2088207;28;20230;-63
2024/01/28 01:55:48;;;;;;;2.42;0.90;;;;;;;4.81;100.00;102801.22;2090874;28;20668;-62
2024/01/28 01:56:49;;;;;;;2.57;1.07;;;;;;;4.80;100.00;102813.34;2093448;28;20616;-62
2024/01/28 01:57:50;;;;;;;4.75;1.00;;;;;;;4.86;100.00;102806.50;2092966;28;20203;-63
2024/01/28 01:58:53;;;;;;;2.40;0.70;;;;;;;4.85;100.00;102804.09;2092601;28;20197;-63
2024/01/28 01:59:53;;;;;;;1.65;0.85;;;;;;;4.96;100.00;102810.72;2092678;28;20187;-62
2024/01/28 02:00:55;;;;;;;4.23;1.50;;;;;;;5.01;100.00;102816.00;2088480;28;22405;-63
2024/01/28 02:01:59;;;;;;;0.88;0.65;;;;;;;5.05;100.00;102816.94;2089839;28;20267;-62
2024/01/28 02:03:01;;;;;;;5.35;0.80;;;;;;;4.99;100.00;102799.88;2090017;28;20236;-63
2024/01/28 02:04:02;;;;;;;0.90;0.60;;;;;;;5.03;100.00;102809.03;2088742;28;21507;-63
2024/01/28 02:05:02;;;;;;;1.37;0.93;;;;;;;4.59;100.00;102737.66;2091920;28;20204;-62
2024/01/28 02:06:05;;;;;;;2.00;0.60;;;;;;;4.99;100.00;102813.63;2088544;28;20237;-63
2024/01/28 02:07:06;;;;;;;1.05;0.70;;;;;;;4.21;100.00;102688.50;2093950;28;20191;-62
2024/01/28 02:08:07;;;;;;;1.47;0.90;;;;;;;4.53;100.00;102744.53;2087691;28;20183;-63
2024/01/28 02:09:09;;;;;;;3.73;0.90;;;;;;;4.88;100.00;102815.19;2089209;28;20422;-63
2024/01/28 02:10:10;;;;;;;3.38;1.02;;;;;;;4.80;100.00;102807.88;2089070;28;20835;-62
2024/01/28 02:11:10;;;;;;;2.35;0.60;;;;;;;4.86;100.00;102811.16;2088074;28;20632;-63
2024/01/28 02:12:11;;;;;;;3.37;0.90;;;;;;;4.85;100.00;102813.13;2088051;28;20191;-63
2024/01/28 02:13:11;;;;;;;1.80;0.80;;;;;;;4.90;100.00;102814.84;2089218;28;20680;-63
2024/01/28 02:14:27;;;;;;;3.17;0.90;;;;;;;4.52;100.00;102762.16;2090669;28;20198;-63
2024/01/28 02:15:27;;;;;;;1.48;0.80;;;;;;;4.04;100.00;102663.19;2087252;28;20297;-62
2024/01/28 02:16:28;;;;;;;3.13;0.90;;;;;;;4.96;100.00;102811.53;2088022;28;20273;-63
2024/01/28 02:17:28;;;;;;;2.80;1.00;;;;;;;4.95;100.00;102811.88;2089784;28;21607;-63
2024/01/28 02:18:29;;;;;;;2.93;0.87;;;;;;;4.67;100.00;102766.97;2094237;28;20325;-62
2024/01/28 02:19:29;;;;;;;3.07;1.10;;;;;;;4.94;100.00;102807.53;2087911;28;20597;-63
2024/01/28 02:20:30;;;;;;;1.93;0.60;;;;;;;5.02;100.00;102807.44;2095488;28;20214;-62
2024/01/28 02:21:30;;;;;;;2.40;1.00;;;;;;;5.07;100.00;102812.69;2088479;28;20188;-63
2024/01/28 02:22:31;;;;;;;1.73;0.67;;;;;;;5.06;100.00;102815.78;2089936;28;20281;-62
2024/01/28 02:23:31;;;;;;;2.97;1.27;;;;;;;5.07;100.00;102823.69;2087857;28;20203;-62
2024/01/28 02:24:32;;;;;;;2.97;0.97;;;;;;;5.07;100.00;102817.41;2090018;28;20199;-63
2024/01/28 02:25:33;;;;;;;4.33;0.80;;;;;;;5.07;100.00;102820.94;2093303;28;20684;-63
2024/01/28 02:26:33;;;;;;;1.17;0.80;;;;;;;5.06;100.00;102816.59;2090943;28;20195;-63
2024/01/28 02:27:35;;;;;;;1.03;0.67;;;;;;;4.46;100.00;102730.56;2087604;28;20715;-63
2024/01/28 02:28:36;;;;;;;3.00;0.98;;;;;;;4.99;100.00;102807.31;2090794;28;20183;-63
2024/01/28 02:29:36;;;;;;;3.93;1.00;;;;;;;4.59;100.00;102749.47;2087523;28;20646;-63
2024/01/28 02:30:36;;;;;;;3.47;0.97;;;;;;;5.04;100.00;102831.81;2088063;28;20747;-63
2024/01/28 02:31:37;;;;;;;2.87;0.90;;;;;;;4.78;100.00;102781.88;2088858;28;20184;-63
2024/01/28 02:32:49;;;;;;;2.33;1.03;;;;;;;5.00;100.00;102830.91;2092678;28;20197;-62
2024/01/28 02:33:49;;;;;;;1.42;0.90;;;;;;;5.00;100.00;102831.72;2088726;28;20631;-62
2024/01/28 02:34:50;;;;;;;0.90;0.60;;;;;;;4.74;100.00;102792.75;2087224;28;20203;-63
2024/01/28 02:35:50;;;;;;;0.80;0.80;;;;;;;4.97;100.00;102826.09;2089459;28;20259;-63
2024/01/28 02:36:51;;;;;;;1.67;0.70;;;;;;;4.95;100.00;102833.88;2094543;28;20180;-63
2024/01/28 02:37:51;;;;;;;7.30;0.90;;;;;;;4.96;100.00;102830.78;2090376;28;20252;-64
2024/01/28 02:38:54;;;;;;;1.27;0.80;;;;;;;4.95;100.00;102833.88;2087550;28;20184;-63
2024/01/28 02:39:54;;;;;;;4.40;1.08;;;;;;;4.66;100.00;102779.13;2092565;28;20186;-63
2024/01/28 02:40:55;;;;;;;0.80;0.80;;;;;;;4.86;100.00;102814.75;2090783;28;20210;-63
2024/01/28 02:41:56;;;;;;;2.10;0.67;;;;;;;4.96;100.00;102832.72;2086761;28;20197;-63
2024/01/28 02:42:56;;;;;;;1.40;0.90;;;;;;;4.92;100.00;102829.84;2091164;28;20219;-63
2024/01/28 02:43:57;;;;;;;1.53;0.73;;;;;;;4.91;100.00;102835.69;2092757;28;20195;-63
2024/01/28 02:44:58;;;;;;;2.20;0.87;;;;;;;4.90;100.00;102832.16;2091621;28;20186;-62
2024/01/28 02:45:58;;;;;;;1.30;0.80;;;;;;;4.06;100.00;102694.66;2086613;28;20198;-63
2024/01/28 02:47:01;;;;;;;7.37;1.03;;;;;;;4.93;100.00;102833.41;2090665;28;20313;-63
2024/01/28 02:48:01;;;;;;;1.02;0.93;;;;;;;4.93;100.00;102831.44;2091544;28;20225;-63
2024/01/28 02:49:02;;;;;;;3.57;0.97;;;;;;;4.87;100.00;102838.31;2087646;28;20263;-63
2024/01/28 02:50:03;;;;;;;1.97;0.73;;;;;;;4.92;100.00;102840.84;2091463;28;20220;-62
2024/01/28 02:51:03;;;;;;;1.57;0.70;;;;;;;4.92;100.00;102832.59;2091301;28;20688;-62
2024/01/28 02:52:04;;;;;;;2.97;0.80;;;;;;;4.15;100.00;102717.31;2086623;28;20661;-63
2024/01/28 02:53:05;;;;;;;2.10;1.10;;;;;;;4.91;100.00;102830.19;2087523;28;20270;-63
2024/01/28 02:54:05;;;;;;;2.67;0.73;;;;;;;4.87;100.00;102827.31;2086918;28;20187;-63
2024/01/28 02:55:06;;;;;;;5.13;1.20;;;;;;;3.90;100.00;102682.72;2087708;28;20203;-62
2024/01/28 02:56:07;;;;;;;2.87;0.80;;;;;;;4.84;100.00;102829.97;2087976;28;20180;-62
2024/01/28 02:57:07;;;;;;;1.43;1.10;;;;;;;4.88;100.00;102834.41;2086491;28;20211;-63
2024/01/28 02:58:08;;;;;;;4.23;1.00;;;;;;;4.87;100.00;102829.28;2089385;28;20181;-62
2024/01/28 02:59:13;;;;;;;0.83;0.67;;;;;;;4.89;100.00;102835.22;2089664;28;20216;-62
2024/01/28 03:00:14;;;;;;;1.85;0.82;;;;;;;4.83;100.00;102833.84;2087211;28;20810;-63
2024/01/28 03:01:16;;;;;;;1.58;0.75;;;;;;;4.83;100.00;102836.59;2092604;28;20197;-63
2024/01/28 03:02:17;;;;;;;3.47;0.88;;;;;;;4.85;100.00;102843.34;2086802;28;20184;-63
2024/01/28 03:03:17;;;;;;;0.98;0.70;;;;;;;4.79;100.00;102846.66;2087622;28;20257;-62
2024/01/28 03:04:18;;;;;;;2.37;0.63;;;;;;;4.77;100.00;102844.25;2088641;28;20317;-62
2024/01/28 03:05:19;;;;;;;0.97;0.80;;;;;;;4.70;100.00;102848.69;2088484;28;20206;-63
2024/01/28 03:06:19;;;;;;;3.03;1.30;;;;;;;4.75;100.00;102845.72;2087055;28;20653;-62
2024/01/28 03:07:20;;;;;;;5.50;1.00;;;;;;;4.68;100.00;102843.56;2087112;28;20661;-62
2024/01/28 03:08:20;;;;;;;1.70;0.80;;;;;;;4.53;100.00;102815.91;2086899;28;20572;-63
2024/01/28 03:09:21;;;;;;;2.07;0.90;;;;;;;4.69;100.00;102836.91;2087993;28;20629;-62
2024/01/28 03:10:21;;;;;;;1.83;0.97;;;;;;;4.26;100.00;102772.59;2088630;28;20702;-62
2024/01/28 03:11:22;;;;;;;2.57;0.97;;;;;;;4.73;100.00;102839.78;2086736;28;20267;-62
2024/01/28 03:12:22;;;;;;;1.77;0.97;;;;;;;4.77;100.00;102846.22;2086695;28;20184;-62
2024/01/28 03:13:23;;;;;;;1.13;0.63;;;;;;;4.70;100.00;102834.94;2088290;28;20188;-63
2024/01/28 03:14:23;;;;;;;1.73;0.70;;;;;;;4.70;100.00;102841.25;2086747;28;20195;-63
2024/01/28 03:15:24;;;;;;;2.97;0.80;;;;;;;4.72;100.00;102838.97;2087877;28;20277;-63
2024/01/28 03:16:24;;;;;;;2.80;0.97;;;;;;;4.65;100.00;102841.47;2090260;28;20198;-62
2024/01/28 03:17:25;;;;;;;5.60;1.00;;;;;;;4.48;100.00;102829.84;2087634;28;20215;-62
2024/01/28 03:18:25;;;;;;;2.57;0.80;;;;;;;4.51;100.00;102832.72;2094884;28;20191;-63
2024/01/28 03:19:26;;;;;;;1.47;0.80;;;;;;;4.60;100.00;102847.19;2093774;28;20175;-62
2024/01/28 03:20:27;;;;;;;4.27;1.13;;;;;;;4.52;100.00;102834.31;2094128;28;20251;-63
2024/01/28 03:21:27;;;;;;;2.00;1.00;;;;;;;4.61;100.00;102845.25;2087554;28;20176;-62
2024/01/28 03:22:28;;;;;;;2.23;0.90;;;;;;;4.57;100.00;102849.81;2086923;28;20187;-62
2024/01/28 03:23:29;;;;;;;2.40;0.87;;;;;;;4.51;100.00;102840.19;2086649;28;20188;-62
2024/01/28 03:24:29;;;;;;;2.67;1.15;;;;;;;4.58;100.00;102848.66;2086960;28;20190;-63
2024/01/28 03:25:31;;;;;;;3.37;0.90;;;;;;;4.55;100.00;102850.13;2090069;28;20194;-63
2024/01/28 03:26:34;;;;;;;1.73;0.80;;;;;;;4.09;100.00;102795.50;2087146;28;20547;-62
2024/01/28 03:27:35;;;;;;;5.32;1.00;;;;;;;4.58;100.00;102859.63;2086741;28;20196;-62
2024/01/28 03:28:36;;;;;;;2.97;1.20;;;;;;;4.49;100.00;102832.28;2085967;28;20660;-62
2024/01/28 03:29:36;;;;;;;2.80;0.80;;;;;;;4.59;100.00;102855.75;2087092;28;20228;-62
2024/01/28 03:30:37;;;;;;;1.70;1.10;;;;;;;4.60;100.00;102847.19;2088219;28;20183;-62
2024/01/28 03:31:38;;;;;;;1.07;0.83;;;;;;;4.64;100.00;102853.59;2086666;28;20671;-62
2024/01/28 03:32:39;;;;;;;1.77;1.00;;;;;;;4.66;100.00;102847.78;2087638;28;20541;-63
2024/01/28 03:33:40;;;;;;;0.93;0.70;;;;;;;4.56;100.00;102842.72;2092651;28;20219;-62
2024/01/28 03:34:40;;;;;;;2.80;1.00;;;;;;;4.67;100.00;102855.66;2092355;28;20307;-63
2024/01/28 03:35:41;;;;;;;2.87;1.13;;;;;;;4.55;100.00;102835.59;2091253;28;20218;-63
2024/01/28 03:36:41;;;;;;;2.00;1.13;;;;;;;4.70;100.00;102854.19;2091063;28;20740;-63
2024/01/28 03:37:42;;;;;;;1.40;0.67;;;;;;;4.74;100.00;102852.38;2087190;28;20219;-62
2024/01/28 03:38:42;;;;;;;1.63;0.80;;;;;;;4.71;100.00;102850.28;2094112;28;20745;-63
2024/01/28 03:39:43;;;;;;;4.50;0.90;;;;;;;4.62;100.00;102844.88;2087219;28;20200;-63
2024/01/28 03:40:44;;;;;;;6.03;1.10;;;;;;;4.73;100.00;102854.28;2087368;28;20224;-63
2024/01/28 03:41:44;;;;;;;2.40;0.80;;;;;;;4.70;100.00;102840.44;2086803;28;20209;-62
2024/01/28 03:42:45;;;;;;;3.77;0.90;;;;;;;4.78;100.00;102865.06;2087413;28;20250;-62
2024/01/28 03:43:46;;;;;;;1.57;0.80;;;;;;;4.81;100.00;102856.16;2087545;28;20203;-63
2024/01/28 03:44:46;;;;;;;1.50;1.00;;;;;;;4.59;100.00;102828.28;2090279;28;20174;-62
2024/01/28 03:45:47;;;;;;;5.43;1.07;;;;;;;4.77;100.00;102857.97;2093855;28;20191;-63
2024/01/28 03:46:47;;;;;;;2.47;1.00;;;;;;;4.76;100.00;102853.63;2087086;28;20223;-62
2024/01/28 03:47:48;;;;;;;3.37;1.00;;;;;;;4.79;100.00;102861.22;2087696;28;20184;-63
2024/01/28 03:48:49;;;;;;;1.27;0.70;;;;;;;4.79;100.00;102861.22;2086935;28;20252;-63
2024/01/28 03:49:49;;;;;;;1.73;0.87;;;;;;;4.83;100.00;102864.84;2090031;28;20273;-62
2024/01/28 03:50:50;;;;;;;0.67;0.67;;;;;;;3.97;100.00;102723.31;2090374;28;20188;-63
2024/01/28 03:51:50;;;;;;;3.77;1.00;;;;;;;4.84;100.00;102854.69;2088967;28;20596;-63
2024/01/28 03:52:51;;;;;;;1.93;1.07;;;;;;;4.87;100.00;102862.25;2088183;28;20749;-62
2024/01/28 03:53:51;;;;;;;0.93;0.60;;;;;;;4.92;100.00;102865.56;2088427;28;20597;-63
2024/01/28 03:54:52;;;;;;;1.63;0.90;;;;;;;4.87;100.00;102857.53;2086945;28;20195;-62
2024/01/28 03:55:53;;;;;;;1.97;0.77;;;;;;;4.51;100.00;102808.00;2087513;28;20752;-63
2024/01/28 03:56:53;;;;;;;1.97;0.90;;;;;;;4.97;100.00;102868.09;2091841;28;20573;-63
2024/01/28 03:57:54;;;;;;;1.97;0.80;;;;;;;4.43;100.00;102777.91;2089302;28;20215;-62
2024/01/28 03:58:54;;;;;;;1.50;1.03;;;;;;;4.93;100.00;102860.88;2089772;28;20559;-62
2024/01/28 03:59:55;;;;;;;1.73;1.10;;;;;;;4.92;100.00;102862.81;2087418;28;20555;-62
2024/01/28 04:00:55;;;;;;;1.03;1.00;;;;;;;4.91;100.00;102868.66;2087398;28;20674;-64
2024/01/28 04:01:56;;;;;;;2.97;1.00;;;;;;;4.90;100.00;102867.06;2088700;28;20186;-62
2024/01/28 04:02:57;;;;;;;2.30;0.73;;;;;;;4.86;100.00;102866.94;2094240;28;20178;-62
2024/01/28 04:03:57;;;;;;;5.20;1.38;;;;;;;4.87;100.00;102863.03;2087669;28;20230;-63
2024/01/28 04:04:58;;;;;;;2.50;0.60;;;;;;;4.82;100.00;102857.75;2087187;28;20278;-62
2024/01/28 04:05:58;;;;;;;0.93;0.67;;;;;;;4.58;100.00;102841.22;2090682;28;20695;-63
2024/01/28 04:06:59;;;;;;;1.17;0.70;;;;;;;4.20;100.00;102793.94;2089431;28;20206;-63
2024/01/28 04:08:00;;;;;;;1.93;1.10;;;;;;;4.75;100.00;102876.75;2089614;28;20197;-62
2024/01/28 04:09:01;;;;;;;2.75;1.20;;;;;;;4.75;100.00;102863.03;2086644;28;20198;-63
2024/01/28 04:10:02;;;;;;;2.33;0.97;;;;;;;4.71;100.00;102869.50;2087235;28;20194;-64
2024/01/28 04:11:05;;;;;;;3.60;1.10;;;;;;;4.68;100.00;102875.69;2087588;28;20191;-63
2024/01/28 04:12:05;;;;;;;0.77;0.52;;;;;;;4.62;100.00;102872.34;2086416;28;20567;-62
2024/01/28 04:13:06;;;;;;;2.57;0.80;;;;;;;4.51;100.00;102867.63;2088117;28;20270;-63
2024/01/28 04:14:06;;;;;;;1.47;0.80;;;;;;;4.57;100.00;102872.56;2086828;28;20190;-63
2024/01/28 04:15:07;;;;;;;3.90;1.27;;;;;;;3.96;100.00;102791.09;2087141;28;20692;-62
2024/01/28 04:16:08;;;;;;;1.38;1.00;;;;;;;4.47;100.00;102866.69;2086955;28;20195;-62
2024/01/28 04:17:08;;;;;;;4.70;1.47;;;;;;;4.54;100.00;102867.75;2095499;28;20222;-63
2024/01/28 04:18:09;;;;;;;4.03;1.07;;;;;;;3.62;100.00;102760.38;2088479;28;20199;-63
2024/01/28 04:19:09;;;;;;;2.07;1.13;;;;;;;4.26;100.00;102843.97;2086981;28;20183;-63
2024/01/28 04:20:10;;;;;;;3.50;1.20;;;;;;;4.52;100.00;102878.25;2087788;28;20208;-62
2024/01/28 04:21:11;;;;;;;1.37;1.10;;;;;;;4.33;100.00;102847.78;2088036;28;20176;-62
2024/01/28 04:22:11;;;;;;;2.40;0.87;;;;;;;4.50;100.00;102877.81;2089798;28;20189;-62
2024/01/28 04:23:12;;;;;;;2.17;1.03;;;;;;;4.48;100.00;102882.84;2090250;28;20186;-62
2024/01/28 04:24:12;;;;;;;1.93;0.93;;;;;;;4.47;100.00;102878.47;2087165;28;20194;-63
2024/01/28 04:25:13;;;;;;;2.60;0.97;;;;;;;4.06;100.00;102837.31;2088643;28;20222;-62
2024/01/28 04:26:14;;;;;;;2.57;1.30;;;;;;;4.46;100.00;102887.84;2086723;28;20235;-63
2024/01/28 04:27:14;;;;;;;3.87;1.10;;;;;;;4.42;100.00;102889.66;2087506;28;20183;-62
2024/01/28 04:28:15;;;;;;;1.97;1.00;;;;;;;4.29;100.00;102870.72;2086232;28;20180;-62
2024/01/28 04:29:15;;;;;;;4.03;0.90;;;;;;;4.34;100.00;102881.50;2088004;28;20599;-62
2024/01/28 04:30:16;;;;;;;2.40;1.10;;;;;;;4.33;100.00;102888.13;2087565;28;20657;-62
2024/01/28 04:31:17;;;;;;;2.22;1.27;;;;;;;4.32;100.00;102892.81;2089396;28;20641;-63
2024/01/28 04:32:17;;;;;;;2.77;1.10;;;;;;;4.29;100.00;102892.69;2089248;28;20677;-63
2024/01/28 04:33:18;;;;;;;2.67;1.30;;;;;;;4.28;100.00;102893.81;2087292;28;20900;-62
2024/01/28 04:34:20;;;;;;;1.40;0.90;;;;;;;4.27;100.00;102889.47;2091110;28;21141;-64
2024/01/28 04:35:20;;;;;;;2.45;1.15;;;;;;;4.26;100.00;102891.41;2086603;28;20355;-63
2024/01/28 04:36:21;;;;;;;3.60;0.90;;;;;;;4.25;100.00;102894.50;2087344;28;20187;-62
2024/01/28 04:37:22;;;;;;;1.67;1.10;;;;;;;4.26;100.00;102888.66;2088612;28;20175;-63
2024/01/28 04:38:22;;;;;;;2.90;1.10;;;;;;;4.21;100.00;102888.06;2093500;28;20215;-62
2024/01/28 04:39:23;;;;;;;1.30;0.80;;;;;;;4.29;100.00;102898.97;2088974;28;20198;-62
2024/01/28 04:40:23;;;;;;;3.07;1.00;;;;;;;4.20;100.00;102887.25;2088809;28;20192;-62
2024/01/28 04:41:24;;;;;;;3.73;1.07;;;;;;;4.25;100.00;102902.75;2088720;28;20226;-63
2024/01/28 04:42:25;;;;;;;2.90;1.20;;;;;;;4.24;100.00;102901.94;2088657;28;20192;-63
2024/01/28 04:43:25;;;;;;;1.10;0.97;;;;;;;3.48;100.00;102779.84;2091814;28;20271;-63